sensor_id;sensor_type;location;lat;lon;timestamp;P1;durP1;ratioP1;P2;durP2;ratioP2
62861;SDS011;48953;53.110;5.592;2023-03-12T00:00:19;15.98;;;4.65;;
62861;SDS011;48953;53.110;5.592;2023-03-12T00:02:45;12.73;;;5.97;;
62861;SDS011;48953;53.110;5.592;2023-03-12T00:05:12;11.00;;;6.40;;
62861;SDS011;48953;53.110;5.592;2023-03-12T00:07:38;15.18;;;6.30;;
62861;SDS011;48953;53.110;5.592;2023-03-12T00:10:04;15.55;;;6.20;;
62861;SDS011;48953;53.110;5.592;2023-03-12T00:12:37;15.35;;;7.78;;
62861;SDS011;48953;53.110;5.592;2023-03-12T00:15:06;15.88;;;7.82;;
62861;SDS011;48953;53.110;5.592;2023-03-12T00:17:42;22.50;;;9.45;;
62861;SDS011;48953;53.110;5.592;2023-03-12T00:20:15;15.50;;;7.20;;
62861;SDS011;48953;53.110;5.592;2023-03-12T00:22:41;13.70;;;6.28;;
62861;SDS011;48953;53.110;5.592;2023-03-12T00:25:11;9.70;;;5.95;;
62861;SDS011;48953;53.110;5.592;2023-03-12T00:27:37;11.27;;;5.97;;
62861;SDS011;48953;53.110;5.592;2023-03-12T00:30:04;12.95;;;5.57;;
62861;SDS011;48953;53.110;5.592;2023-03-12T00:32:33;8.35;;;4.60;;
62861;SDS011;48953;53.110;5.592;2023-03-12T00:34:59;9.50;;;5.05;;
62861;SDS011;48953;53.110;5.592;2023-03-12T00:37:25;6.03;;;3.90;;
62861;SDS011;48953;53.110;5.592;2023-03-12T00:39:51;14.38;;;4.93;;
62861;SDS011;48953;53.110;5.592;2023-03-12T00:42:18;9.98;;;4.38;;
62861;SDS011;48953;53.110;5.592;2023-03-12T00:44:44;8.70;;;3.92;;
62861;SDS011;48953;53.110;5.592;2023-03-12T00:47:10;7.75;;;4.18;;
62861;SDS011;48953;53.110;5.592;2023-03-12T00:49:36;8.55;;;4.38;;
62861;SDS011;48953;53.110;5.592;2023-03-12T00:52:02;7.25;;;4.50;;
62861;SDS011;48953;53.110;5.592;2023-03-12T00:54:28;6.72;;;4.28;;
62861;SDS011;48953;53.110;5.592;2023-03-12T00:56:54;5.93;;;3.85;;
62861;SDS011;48953;53.110;5.592;2023-03-12T00:59:21;5.85;;;3.97;;
62861;SDS011;48953;53.110;5.592;2023-03-12T01:01:54;9.73;;;4.07;;
62861;SDS011;48953;53.110;5.592;2023-03-12T01:04:20;8.35;;;4.15;;
62861;SDS011;48953;53.110;5.592;2023-03-12T01:06:46;6.88;;;4.50;;
62861;SDS011;48953;53.110;5.592;2023-03-12T01:09:12;6.90;;;4.00;;
62861;SDS011;48953;53.110;5.592;2023-03-12T01:11:38;6.38;;;4.30;;
62861;SDS011;48953;53.110;5.592;2023-03-12T01:14:05;8.93;;;4.40;;
62861;SDS011;48953;53.110;5.592;2023-03-12T01:16:31;8.30;;;4.35;;
62861;SDS011;48953;53.110;5.592;2023-03-12T01:18:58;6.55;;;4.32;;
62861;SDS011;48953;53.110;5.592;2023-03-12T01:21:25;8.88;;;4.78;;
62861;SDS011;48953;53.110;5.592;2023-03-12T01:23:51;7.40;;;4.57;;
62861;SDS011;48953;53.110;5.592;2023-03-12T01:26:17;7.28;;;4.63;;
62861;SDS011;48953;53.110;5.592;2023-03-12T01:28:43;8.00;;;4.13;;
62861;SDS011;48953;53.110;5.592;2023-03-12T01:31:10;9.25;;;3.97;;
62861;SDS011;48953;53.110;5.592;2023-03-12T01:33:37;9.13;;;4.18;;
62861;SDS011;48953;53.110;5.592;2023-03-12T01:36:03;7.63;;;4.03;;
62861;SDS011;48953;53.110;5.592;2023-03-12T01:38:29;8.13;;;3.88;;
62861;SDS011;48953;53.110;5.592;2023-03-12T01:40:55;8.35;;;3.63;;
62861;SDS011;48953;53.110;5.592;2023-03-12T01:43:38;7.15;;;4.38;;
62861;SDS011;48953;53.110;5.592;2023-03-12T01:49:08;10.48;;;3.95;;
62861;SDS011;48953;53.110;5.592;2023-03-12T01:51:56;10.07;;;3.90;;
62861;SDS011;48953;53.110;5.592;2023-03-12T01:54:25;8.90;;;3.80;;
62861;SDS011;48953;53.110;5.592;2023-03-12T01:56:52;8.10;;;4.35;;
62861;SDS011;48953;53.110;5.592;2023-03-12T01:59:20;8.98;;;3.67;;
62861;SDS011;48953;53.110;5.592;2023-03-12T02:01:47;9.05;;;3.75;;
62861;SDS011;48953;53.110;5.592;2023-03-12T02:04:13;6.03;;;3.47;;
62861;SDS011;48953;53.110;5.592;2023-03-12T02:07:01;5.00;;;3.17;;
62861;SDS011;48953;53.110;5.592;2023-03-12T02:09:29;9.88;;;3.88;;
62861;SDS011;48953;53.110;5.592;2023-03-12T02:11:56;6.85;;;3.55;;
62861;SDS011;48953;53.110;5.592;2023-03-12T02:14:22;5.63;;;3.33;;
62861;SDS011;48953;53.110;5.592;2023-03-12T02:16:48;7.53;;;3.35;;
62861;SDS011;48953;53.110;5.592;2023-03-12T02:19:16;8.13;;;3.55;;
62861;SDS011;48953;53.110;5.592;2023-03-12T02:21:43;7.35;;;3.60;;
62861;SDS011;48953;53.110;5.592;2023-03-12T02:24:52;5.45;;;3.25;;
62861;SDS011;48953;53.110;5.592;2023-03-12T02:27:11;5.10;;;2.97;;
62861;SDS011;48953;53.110;5.592;2023-03-12T02:29:51;12.00;;;3.42;;
62861;SDS011;48953;53.110;5.592;2023-03-12T02:34:43;6.45;;;3.35;;
62861;SDS011;48953;53.110;5.592;2023-03-12T02:37:09;7.15;;;2.83;;
62861;SDS011;48953;53.110;5.592;2023-03-12T02:39:36;8.38;;;2.90;;
62861;SDS011;48953;53.110;5.592;2023-03-12T02:42:02;7.82;;;3.00;;
62861;SDS011;48953;53.110;5.592;2023-03-12T02:44:31;5.00;;;2.72;;
62861;SDS011;48953;53.110;5.592;2023-03-12T02:46:59;6.82;;;3.53;;
62861;SDS011;48953;53.110;5.592;2023-03-12T02:49:27;5.55;;;3.13;;
62861;SDS011;48953;53.110;5.592;2023-03-12T02:51:54;6.63;;;3.40;;
62861;SDS011;48953;53.110;5.592;2023-03-12T02:54:20;6.55;;;3.30;;
62861;SDS011;48953;53.110;5.592;2023-03-12T02:56:46;6.00;;;3.05;;
62861;SDS011;48953;53.110;5.592;2023-03-12T02:59:13;7.25;;;3.53;;
62861;SDS011;48953;53.110;5.592;2023-03-12T03:01:39;6.80;;;3.63;;
62861;SDS011;48953;53.110;5.592;2023-03-12T03:04:06;6.90;;;3.33;;
62861;SDS011;48953;53.110;5.592;2023-03-12T03:06:33;6.82;;;3.83;;
62861;SDS011;48953;53.110;5.592;2023-03-12T03:08:59;6.00;;;3.17;;
62861;SDS011;48953;53.110;5.592;2023-03-12T03:11:25;9.68;;;3.92;;
62861;SDS011;48953;53.110;5.592;2023-03-12T03:13:52;7.32;;;4.20;;
62861;SDS011;48953;53.110;5.592;2023-03-12T03:16:18;5.22;;;3.88;;
62861;SDS011;48953;53.110;5.592;2023-03-12T03:18:44;5.82;;;4.13;;
62861;SDS011;48953;53.110;5.592;2023-03-12T03:21:10;10.32;;;4.55;;
62861;SDS011;48953;53.110;5.592;2023-03-12T03:23:41;6.63;;;4.18;;
62861;SDS011;48953;53.110;5.592;2023-03-12T03:26:07;6.30;;;4.07;;
62861;SDS011;48953;53.110;5.592;2023-03-12T03:28:33;5.38;;;3.70;;
62861;SDS011;48953;53.110;5.592;2023-03-12T03:30:59;5.13;;;3.72;;
62861;SDS011;48953;53.110;5.592;2023-03-12T03:33:30;6.90;;;4.03;;
62861;SDS011;48953;53.110;5.592;2023-03-12T03:35:56;8.32;;;3.90;;
62861;SDS011;48953;53.110;5.592;2023-03-12T03:38:23;8.35;;;4.63;;
62861;SDS011;48953;53.110;5.592;2023-03-12T03:40:50;7.78;;;4.60;;
62861;SDS011;48953;53.110;5.592;2023-03-12T03:43:16;8.65;;;4.07;;
62861;SDS011;48953;53.110;5.592;2023-03-12T03:45:42;7.18;;;4.07;;
62861;SDS011;48953;53.110;5.592;2023-03-12T03:48:09;7.63;;;3.92;;
62861;SDS011;48953;53.110;5.592;2023-03-12T03:50:36;6.50;;;3.92;;
62861;SDS011;48953;53.110;5.592;2023-03-12T03:53:02;12.52;;;5.00;;
62861;SDS011;48953;53.110;5.592;2023-03-12T03:55:29;8.80;;;3.78;;
62861;SDS011;48953;53.110;5.592;2023-03-12T03:57:55;9.85;;;4.82;;
62861;SDS011;48953;53.110;5.592;2023-03-12T04:00:21;8.57;;;4.20;;
62861;SDS011;48953;53.110;5.592;2023-03-12T04:02:47;7.57;;;4.53;;
62861;SDS011;48953;53.110;5.592;2023-03-12T04:05:13;8.80;;;5.00;;
62861;SDS011;48953;53.110;5.592;2023-03-12T04:07:43;8.53;;;4.73;;
62861;SDS011;48953;53.110;5.592;2023-03-12T04:10:09;7.68;;;4.07;;
62861;SDS011;48953;53.110;5.592;2023-03-12T04:12:35;7.03;;;4.50;;
62861;SDS011;48953;53.110;5.592;2023-03-12T04:15:01;6.18;;;4.07;;
62861;SDS011;48953;53.110;5.592;2023-03-12T04:17:27;9.27;;;4.28;;
62861;SDS011;48953;53.110;5.592;2023-03-12T04:19:53;5.95;;;3.70;;
62861;SDS011;48953;53.110;5.592;2023-03-12T04:22:19;7.68;;;4.05;;
62861;SDS011;48953;53.110;5.592;2023-03-12T04:24:45;6.47;;;4.15;;
62861;SDS011;48953;53.110;5.592;2023-03-12T04:27:11;6.55;;;3.88;;
62861;SDS011;48953;53.110;5.592;2023-03-12T04:29:37;6.75;;;4.43;;
62861;SDS011;48953;53.110;5.592;2023-03-12T04:32:04;7.57;;;3.72;;
62861;SDS011;48953;53.110;5.592;2023-03-12T04:34:31;5.70;;;4.00;;
62861;SDS011;48953;53.110;5.592;2023-03-12T04:37:05;7.55;;;4.18;;
62861;SDS011;48953;53.110;5.592;2023-03-12T04:39:31;7.80;;;4.68;;
62861;SDS011;48953;53.110;5.592;2023-03-12T04:41:58;6.65;;;4.05;;
62861;SDS011;48953;53.110;5.592;2023-03-12T04:44:24;6.82;;;3.97;;
62861;SDS011;48953;53.110;5.592;2023-03-12T04:46:50;7.63;;;3.95;;
62861;SDS011;48953;53.110;5.592;2023-03-12T04:49:16;7.32;;;4.20;;
62861;SDS011;48953;53.110;5.592;2023-03-12T04:51:42;10.13;;;3.92;;
62861;SDS011;48953;53.110;5.592;2023-03-12T04:54:08;9.88;;;4.22;;
62861;SDS011;48953;53.110;5.592;2023-03-12T04:56:34;8.65;;;3.72;;
62861;SDS011;48953;53.110;5.592;2023-03-12T04:59:00;6.15;;;3.72;;
62861;SDS011;48953;53.110;5.592;2023-03-12T05:01:27;7.63;;;4.20;;
62861;SDS011;48953;53.110;5.592;2023-03-12T05:03:53;8.63;;;4.65;;
62861;SDS011;48953;53.110;5.592;2023-03-12T05:06:20;9.45;;;4.38;;
62861;SDS011;48953;53.110;5.592;2023-03-12T05:08:47;7.25;;;4.13;;
62861;SDS011;48953;53.110;5.592;2023-03-12T05:11:13;6.28;;;4.13;;
62861;SDS011;48953;53.110;5.592;2023-03-12T05:13:39;6.15;;;3.90;;
62861;SDS011;48953;53.110;5.592;2023-03-12T05:16:05;5.50;;;3.90;;
62861;SDS011;48953;53.110;5.592;2023-03-12T05:18:31;8.10;;;4.20;;
62861;SDS011;48953;53.110;5.592;2023-03-12T05:24:01;5.78;;;3.80;;
62861;SDS011;48953;53.110;5.592;2023-03-12T05:26:29;8.57;;;4.82;;
62861;SDS011;48953;53.110;5.592;2023-03-12T05:28:58;9.25;;;3.83;;
62861;SDS011;48953;53.110;5.592;2023-03-12T05:31:25;10.18;;;4.40;;
62861;SDS011;48953;53.110;5.592;2023-03-12T05:33:51;7.82;;;3.67;;
62861;SDS011;48953;53.110;5.592;2023-03-12T05:36:17;5.60;;;4.20;;
62861;SDS011;48953;53.110;5.592;2023-03-12T05:38:43;8.07;;;4.05;;
62861;SDS011;48953;53.110;5.592;2023-03-12T05:41:28;8.35;;;4.00;;
62861;SDS011;48953;53.110;5.592;2023-03-12T05:43:54;6.57;;;4.38;;
62861;SDS011;48953;53.110;5.592;2023-03-12T05:46:21;10.02;;;4.47;;
62861;SDS011;48953;53.110;5.592;2023-03-12T05:48:47;10.43;;;4.10;;
62861;SDS011;48953;53.110;5.592;2023-03-12T05:51:14;6.03;;;4.25;;
62861;SDS011;48953;53.110;5.592;2023-03-12T05:53:40;6.15;;;4.07;;
62861;SDS011;48953;53.110;5.592;2023-03-12T05:56:07;6.53;;;4.30;;
62861;SDS011;48953;53.110;5.592;2023-03-12T05:58:33;7.60;;;3.75;;
62861;SDS011;48953;53.110;5.592;2023-03-12T06:01:00;6.97;;;3.65;;
62861;SDS011;48953;53.110;5.592;2023-03-12T06:03:26;7.13;;;4.15;;
62861;SDS011;48953;53.110;5.592;2023-03-12T06:06:06;8.77;;;4.10;;
62861;SDS011;48953;53.110;5.592;2023-03-12T06:08:33;6.70;;;3.72;;
62861;SDS011;48953;53.110;5.592;2023-03-12T06:10:59;9.32;;;2.78;;
62861;SDS011;48953;53.110;5.592;2023-03-12T06:13:25;7.20;;;3.17;;
62861;SDS011;48953;53.110;5.592;2023-03-12T06:15:52;6.97;;;3.45;;
62861;SDS011;48953;53.110;5.592;2023-03-12T06:18:18;5.30;;;3.28;;
62861;SDS011;48953;53.110;5.592;2023-03-12T06:20:44;3.95;;;3.00;;
62861;SDS011;48953;53.110;5.592;2023-03-12T06:23:10;5.53;;;2.50;;
62861;SDS011;48953;53.110;5.592;2023-03-12T06:25:36;9.05;;;3.15;;
62861;SDS011;48953;53.110;5.592;2023-03-12T06:28:02;5.07;;;3.10;;
62861;SDS011;48953;53.110;5.592;2023-03-12T06:30:28;4.88;;;3.15;;
62861;SDS011;48953;53.110;5.592;2023-03-12T06:32:54;6.32;;;2.97;;
62861;SDS011;48953;53.110;5.592;2023-03-12T06:35:20;3.95;;;2.63;;
62861;SDS011;48953;53.110;5.592;2023-03-12T06:37:46;5.25;;;3.38;;
62861;SDS011;48953;53.110;5.592;2023-03-12T06:40:12;4.03;;;2.67;;
62861;SDS011;48953;53.110;5.592;2023-03-12T06:42:38;4.10;;;2.90;;
62861;SDS011;48953;53.110;5.592;2023-03-12T06:45:04;6.32;;;3.45;;
62861;SDS011;48953;53.110;5.592;2023-03-12T06:47:46;8.65;;;3.50;;
62861;SDS011;48953;53.110;5.592;2023-03-12T06:50:18;6.20;;;3.88;;
62861;SDS011;48953;53.110;5.592;2023-03-12T06:52:44;9.48;;;3.88;;
62861;SDS011;48953;53.110;5.592;2023-03-12T06:55:10;7.03;;;3.58;;
62861;SDS011;48953;53.110;5.592;2023-03-12T06:57:36;7.35;;;3.83;;
62861;SDS011;48953;53.110;5.592;2023-03-12T07:00:03;7.43;;;4.82;;
62861;SDS011;48953;53.110;5.592;2023-03-12T07:02:29;7.13;;;3.67;;
62861;SDS011;48953;53.110;5.592;2023-03-12T07:04:55;6.03;;;3.70;;
62861;SDS011;48953;53.110;5.592;2023-03-12T07:07:21;5.75;;;3.50;;
62861;SDS011;48953;53.110;5.592;2023-03-12T07:09:47;5.72;;;4.07;;
62861;SDS011;48953;53.110;5.592;2023-03-12T07:12:13;6.88;;;3.80;;
62861;SDS011;48953;53.110;5.592;2023-03-12T07:14:39;4.90;;;3.75;;
62861;SDS011;48953;53.110;5.592;2023-03-12T07:17:05;6.53;;;4.22;;
62861;SDS011;48953;53.110;5.592;2023-03-12T07:19:48;7.47;;;3.78;;
62861;SDS011;48953;53.110;5.592;2023-03-12T07:22:14;8.05;;;4.03;;
62861;SDS011;48953;53.110;5.592;2023-03-12T07:24:41;7.30;;;3.85;;
62861;SDS011;48953;53.110;5.592;2023-03-12T07:27:07;10.18;;;4.95;;
62861;SDS011;48953;53.110;5.592;2023-03-12T07:29:33;5.97;;;4.05;;
62861;SDS011;48953;53.110;5.592;2023-03-12T07:34:44;8.18;;;4.90;;
62861;SDS011;48953;53.110;5.592;2023-03-12T07:37:10;6.72;;;4.13;;
62861;SDS011;48953;53.110;5.592;2023-03-12T07:39:36;6.20;;;3.90;;
62861;SDS011;48953;53.110;5.592;2023-03-12T07:42:02;6.20;;;4.35;;
62861;SDS011;48953;53.110;5.592;2023-03-12T07:44:28;6.38;;;3.85;;
62861;SDS011;48953;53.110;5.592;2023-03-12T07:46:54;5.97;;;4.45;;
62861;SDS011;48953;53.110;5.592;2023-03-12T07:49:20;6.18;;;3.80;;
62861;SDS011;48953;53.110;5.592;2023-03-12T07:51:46;7.53;;;4.40;;
62861;SDS011;48953;53.110;5.592;2023-03-12T07:54:12;9.15;;;4.90;;
62861;SDS011;48953;53.110;5.592;2023-03-12T07:56:38;6.47;;;4.25;;
62861;SDS011;48953;53.110;5.592;2023-03-12T07:59:04;7.22;;;4.13;;
62861;SDS011;48953;53.110;5.592;2023-03-12T08:01:30;6.40;;;4.05;;
62861;SDS011;48953;53.110;5.592;2023-03-12T08:04:00;8.27;;;4.63;;
62861;SDS011;48953;53.110;5.592;2023-03-12T08:06:27;8.85;;;4.93;;
62861;SDS011;48953;53.110;5.592;2023-03-12T08:08:53;5.80;;;3.83;;
62861;SDS011;48953;53.110;5.592;2023-03-12T08:11:19;9.02;;;4.55;;
62861;SDS011;48953;53.110;5.592;2023-03-12T08:13:45;8.98;;;4.60;;
62861;SDS011;48953;53.110;5.592;2023-03-12T08:16:11;7.90;;;4.20;;
62861;SDS011;48953;53.110;5.592;2023-03-12T08:18:38;8.18;;;4.22;;
62861;SDS011;48953;53.110;5.592;2023-03-12T08:21:07;7.70;;;4.25;;
62861;SDS011;48953;53.110;5.592;2023-03-12T08:23:33;8.27;;;3.92;;
62861;SDS011;48953;53.110;5.592;2023-03-12T08:25:59;8.23;;;3.92;;
62861;SDS011;48953;53.110;5.592;2023-03-12T08:28:25;4.97;;;3.78;;
62861;SDS011;48953;53.110;5.592;2023-03-12T08:30:52;6.55;;;3.97;;
62861;SDS011;48953;53.110;5.592;2023-03-12T08:33:19;5.22;;;3.90;;
62861;SDS011;48953;53.110;5.592;2023-03-12T08:35:45;5.90;;;4.05;;
62861;SDS011;48953;53.110;5.592;2023-03-12T08:38:11;6.93;;;3.95;;
62861;SDS011;48953;53.110;5.592;2023-03-12T08:40:37;5.43;;;3.50;;
62861;SDS011;48953;53.110;5.592;2023-03-12T08:43:03;5.70;;;3.67;;
62861;SDS011;48953;53.110;5.592;2023-03-12T08:45:31;4.85;;;3.67;;
62861;SDS011;48953;53.110;5.592;2023-03-12T08:47:57;5.40;;;4.03;;
62861;SDS011;48953;53.110;5.592;2023-03-12T08:50:23;5.88;;;3.60;;
62861;SDS011;48953;53.110;5.592;2023-03-12T08:52:53;6.00;;;4.00;;
62861;SDS011;48953;53.110;5.592;2023-03-12T08:55:19;5.85;;;4.43;;
62861;SDS011;48953;53.110;5.592;2023-03-12T08:57:45;4.28;;;3.63;;
62861;SDS011;48953;53.110;5.592;2023-03-12T09:00:12;5.22;;;3.63;;
62861;SDS011;48953;53.110;5.592;2023-03-12T09:02:39;6.10;;;4.82;;
62861;SDS011;48953;53.110;5.592;2023-03-12T09:05:05;7.30;;;4.15;;
62861;SDS011;48953;53.110;5.592;2023-03-12T09:07:31;6.28;;;4.38;;
62861;SDS011;48953;53.110;5.592;2023-03-12T09:09:58;7.05;;;4.15;;
62861;SDS011;48953;53.110;5.592;2023-03-12T09:12:24;7.65;;;4.68;;
62861;SDS011;48953;53.110;5.592;2023-03-12T09:14:50;9.95;;;5.07;;
62861;SDS011;48953;53.110;5.592;2023-03-12T09:17:17;6.10;;;4.43;;
62861;SDS011;48953;53.110;5.592;2023-03-12T09:19:43;9.23;;;4.25;;
62861;SDS011;48953;53.110;5.592;2023-03-12T09:22:09;7.95;;;4.85;;
62861;SDS011;48953;53.110;5.592;2023-03-12T09:24:35;7.13;;;4.75;;
62861;SDS011;48953;53.110;5.592;2023-03-12T09:27:01;8.10;;;5.30;;
62861;SDS011;48953;53.110;5.592;2023-03-12T09:29:29;7.80;;;5.82;;
62861;SDS011;48953;53.110;5.592;2023-03-12T09:31:55;6.97;;;5.38;;
62861;SDS011;48953;53.110;5.592;2023-03-12T09:34:21;7.13;;;5.43;;
62861;SDS011;48953;53.110;5.592;2023-03-12T09:36:47;8.68;;;5.50;;
62861;SDS011;48953;53.110;5.592;2023-03-12T09:39:15;9.75;;;6.35;;
62861;SDS011;48953;53.110;5.592;2023-03-12T09:41:43;11.10;;;6.65;;
62861;SDS011;48953;53.110;5.592;2023-03-12T09:46:42;11.75;;;6.68;;
62861;SDS011;48953;53.110;5.592;2023-03-12T09:49:14;9.98;;;6.82;;
62861;SDS011;48953;53.110;5.592;2023-03-12T09:51:43;10.80;;;6.90;;
62861;SDS011;48953;53.110;5.592;2023-03-12T09:54:53;10.55;;;6.70;;
62861;SDS011;48953;53.110;5.592;2023-03-12T09:56:59;11.77;;;7.43;;
62861;SDS011;48953;53.110;5.592;2023-03-12T09:59:27;9.88;;;7.13;;
62861;SDS011;48953;53.110;5.592;2023-03-12T10:01:54;10.70;;;6.68;;
62861;SDS011;48953;53.110;5.592;2023-03-12T10:07:05;13.57;;;7.90;;
62861;SDS011;48953;53.110;5.592;2023-03-12T10:09:58;16.27;;;8.32;;
62861;SDS011;48953;53.110;5.592;2023-03-12T10:17:42;13.02;;;8.40;;
62861;SDS011;48953;53.110;5.592;2023-03-12T10:20:21;14.07;;;7.93;;
62861;SDS011;48953;53.110;5.592;2023-03-12T10:27:45;16.80;;;8.38;;
62861;SDS011;48953;53.110;5.592;2023-03-12T10:30:15;14.43;;;8.40;;
62861;SDS011;48953;53.110;5.592;2023-03-12T10:32:44;14.23;;;8.85;;
62861;SDS011;48953;53.110;5.592;2023-03-12T10:35:21;14.25;;;8.10;;
62861;SDS011;48953;53.110;5.592;2023-03-12T10:40:27;14.90;;;9.63;;
62861;SDS011;48953;53.110;5.592;2023-03-12T10:42:53;16.15;;;9.57;;
62861;SDS011;48953;53.110;5.592;2023-03-12T10:45:30;15.98;;;10.00;;
62861;SDS011;48953;53.110;5.592;2023-03-12T10:48:03;17.00;;;9.17;;
62861;SDS011;48953;53.110;5.592;2023-03-12T10:50:34;16.42;;;9.88;;
62861;SDS011;48953;53.110;5.592;2023-03-12T10:56:18;17.20;;;10.43;;
62861;SDS011;48953;53.110;5.592;2023-03-12T10:58:48;17.63;;;10.82;;
62861;SDS011;48953;53.110;5.592;2023-03-12T11:03:40;17.65;;;10.65;;
62861;SDS011;48953;53.110;5.592;2023-03-12T11:06:08;18.42;;;10.13;;
62861;SDS011;48953;53.110;5.592;2023-03-12T11:08:39;17.52;;;9.95;;
62861;SDS011;48953;53.110;5.592;2023-03-12T11:11:06;17.02;;;9.88;;
62861;SDS011;48953;53.110;5.592;2023-03-12T11:13:36;18.15;;;9.38;;
62861;SDS011;48953;53.110;5.592;2023-03-12T11:18:32;17.02;;;9.07;;
62861;SDS011;48953;53.110;5.592;2023-03-12T11:23:34;17.08;;;8.88;;
62861;SDS011;48953;53.110;5.592;2023-03-12T11:26:02;19.92;;;8.95;;
62861;SDS011;48953;53.110;5.592;2023-03-12T11:28:31;20.30;;;8.82;;
62861;SDS011;48953;53.110;5.592;2023-03-12T11:30:59;19.90;;;7.13;;
62861;SDS011;48953;53.110;5.592;2023-03-12T11:33:25;23.00;;;6.30;;
62861;SDS011;48953;53.110;5.592;2023-03-12T11:35:56;22.30;;;6.28;;
62861;SDS011;48953;53.110;5.592;2023-03-12T11:38:34;30.08;;;6.88;;
62861;SDS011;48953;53.110;5.592;2023-03-12T11:42:05;22.88;;;6.38;;
62861;SDS011;48953;53.110;5.592;2023-03-12T11:55:10;22.77;;;5.75;;
62861;SDS011;48953;53.110;5.592;2023-03-12T12:00:14;28.00;;;5.50;;
62861;SDS011;48953;53.110;5.592;2023-03-12T12:05:17;16.42;;;5.35;;
62861;SDS011;48953;53.110;5.592;2023-03-12T12:21:32;23.45;;;4.28;;
62861;SDS011;48953;53.110;5.592;2023-03-12T12:29:20;19.70;;;4.18;;
62861;SDS011;48953;53.110;5.592;2023-03-12T12:39:31;17.73;;;3.85;;
62861;SDS011;48953;53.110;5.592;2023-03-12T12:42:01;18.13;;;3.58;;
62861;SDS011;48953;53.110;5.592;2023-03-12T12:44:50;14.80;;;3.60;;
62861;SDS011;48953;53.110;5.592;2023-03-12T12:47:16;14.50;;;3.60;;
62861;SDS011;48953;53.110;5.592;2023-03-12T12:52:15;20.05;;;3.53;;
62861;SDS011;48953;53.110;5.592;2023-03-12T13:02:16;15.93;;;3.00;;
62861;SDS011;48953;53.110;5.592;2023-03-12T13:04:44;15.23;;;2.97;;
62861;SDS011;48953;53.110;5.592;2023-03-12T13:09:46;20.75;;;3.95;;
62861;SDS011;48953;53.110;5.592;2023-03-12T13:14:50;15.25;;;3.53;;
62861;SDS011;48953;53.110;5.592;2023-03-12T13:17:28;24.17;;;4.78;;
62861;SDS011;48953;53.110;5.592;2023-03-12T13:27:44;17.80;;;4.35;;
62861;SDS011;48953;53.110;5.592;2023-03-12T13:33:13;18.13;;;3.95;;
62861;SDS011;48953;53.110;5.592;2023-03-12T13:35:39;20.73;;;3.65;;
62861;SDS011;48953;53.110;5.592;2023-03-12T13:38:07;19.10;;;3.53;;
62861;SDS011;48953;53.110;5.592;2023-03-12T13:40:53;21.52;;;4.03;;
62861;SDS011;48953;53.110;5.592;2023-03-12T13:46:05;19.67;;;3.45;;
62861;SDS011;48953;53.110;5.592;2023-03-12T13:48:32;24.42;;;4.55;;
62861;SDS011;48953;53.110;5.592;2023-03-12T13:51:09;19.40;;;4.05;;
62861;SDS011;48953;53.110;5.592;2023-03-12T13:53:36;17.38;;;3.67;;
62861;SDS011;48953;53.110;5.592;2023-03-12T13:56:10;18.98;;;3.00;;
62861;SDS011;48953;53.110;5.592;2023-03-12T13:58:40;21.02;;;3.50;;
62861;SDS011;48953;53.110;5.592;2023-03-12T14:03:54;21.60;;;4.50;;
62861;SDS011;48953;53.110;5.592;2023-03-12T14:06:25;14.38;;;3.40;;
62861;SDS011;48953;53.110;5.592;2023-03-12T14:08:56;17.48;;;3.00;;
62861;SDS011;48953;53.110;5.592;2023-03-12T14:16:56;22.58;;;3.58;;
62861;SDS011;48953;53.110;5.592;2023-03-12T14:19:24;20.48;;;3.90;;
62861;SDS011;48953;53.110;5.592;2023-03-12T14:21:50;24.85;;;3.90;;
62861;SDS011;48953;53.110;5.592;2023-03-12T14:24:27;22.65;;;3.97;;
62861;SDS011;48953;53.110;5.592;2023-03-12T14:26:54;22.30;;;3.75;;
62861;SDS011;48953;53.110;5.592;2023-03-12T14:29:26;25.23;;;5.20;;
62861;SDS011;48953;53.110;5.592;2023-03-12T14:31:53;25.38;;;3.90;;
62861;SDS011;48953;53.110;5.592;2023-03-12T14:34:21;30.17;;;4.00;;
62861;SDS011;48953;53.110;5.592;2023-03-12T14:39:27;25.95;;;3.78;;
62861;SDS011;48953;53.110;5.592;2023-03-12T14:41:59;18.80;;;3.95;;
62861;SDS011;48953;53.110;5.592;2023-03-12T14:44:26;25.55;;;4.07;;
62861;SDS011;48953;53.110;5.592;2023-03-12T14:49:25;25.52;;;4.63;;
62861;SDS011;48953;53.110;5.592;2023-03-12T14:51:52;24.70;;;4.30;;
62861;SDS011;48953;53.110;5.592;2023-03-12T14:54:19;31.55;;;6.10;;
62861;SDS011;48953;53.110;5.592;2023-03-12T14:56:47;24.65;;;4.78;;
62861;SDS011;48953;53.110;5.592;2023-03-12T14:59:20;24.48;;;5.70;;
62861;SDS011;48953;53.110;5.592;2023-03-12T15:01:47;28.42;;;4.45;;
62861;SDS011;48953;53.110;5.592;2023-03-12T15:04:13;27.25;;;4.30;;
62861;SDS011;48953;53.110;5.592;2023-03-12T15:06:59;23.73;;;4.50;;
62861;SDS011;48953;53.110;5.592;2023-03-12T15:09:29;24.10;;;4.45;;
62861;SDS011;48953;53.110;5.592;2023-03-12T15:11:56;16.13;;;4.13;;
62861;SDS011;48953;53.110;5.592;2023-03-12T15:14:23;22.77;;;4.75;;
62861;SDS011;48953;53.110;5.592;2023-03-12T15:16:51;24.48;;;4.22;;
62861;SDS011;48953;53.110;5.592;2023-03-12T15:19:22;24.38;;;4.22;;
62861;SDS011;48953;53.110;5.592;2023-03-12T15:21:50;22.58;;;4.57;;
62861;SDS011;48953;53.110;5.592;2023-03-12T15:24:16;21.00;;;3.58;;
62861;SDS011;48953;53.110;5.592;2023-03-12T15:26:43;25.80;;;5.57;;
62861;SDS011;48953;53.110;5.592;2023-03-12T15:29:27;23.95;;;3.33;;
62861;SDS011;48953;53.110;5.592;2023-03-12T15:31:54;26.02;;;4.00;;
62861;SDS011;48953;53.110;5.592;2023-03-12T15:34:31;25.42;;;4.68;;
62861;SDS011;48953;53.110;5.592;2023-03-12T15:36:58;21.70;;;4.85;;
62861;SDS011;48953;53.110;5.592;2023-03-12T15:39:25;26.80;;;4.38;;
62861;SDS011;48953;53.110;5.592;2023-03-12T15:41:52;26.27;;;4.35;;
62861;SDS011;48953;53.110;5.592;2023-03-12T15:44:20;24.58;;;4.20;;
62861;SDS011;48953;53.110;5.592;2023-03-12T15:46:47;25.13;;;3.67;;
62861;SDS011;48953;53.110;5.592;2023-03-12T15:49:24;27.05;;;4.13;;
62861;SDS011;48953;53.110;5.592;2023-03-12T15:51:58;29.25;;;3.97;;
62861;SDS011;48953;53.110;5.592;2023-03-12T15:54:26;26.55;;;5.72;;
62861;SDS011;48953;53.110;5.592;2023-03-12T15:56:53;28.05;;;4.53;;
62861;SDS011;48953;53.110;5.592;2023-03-12T15:59:26;20.30;;;4.25;;
62861;SDS011;48953;53.110;5.592;2023-03-12T16:01:53;21.58;;;3.65;;
62861;SDS011;48953;53.110;5.592;2023-03-12T16:04:20;21.20;;;4.07;;
62861;SDS011;48953;53.110;5.592;2023-03-12T16:06:46;22.90;;;4.38;;
62861;SDS011;48953;53.110;5.592;2023-03-12T16:09:22;24.77;;;4.32;;
62861;SDS011;48953;53.110;5.592;2023-03-12T16:14:32;26.60;;;3.90;;
62861;SDS011;48953;53.110;5.592;2023-03-12T16:17:00;24.17;;;4.15;;
62861;SDS011;48953;53.110;5.592;2023-03-12T16:19:27;21.27;;;3.22;;
62861;SDS011;48953;53.110;5.592;2023-03-12T16:21:54;26.38;;;4.43;;
62861;SDS011;48953;53.110;5.592;2023-03-12T16:24:20;30.30;;;5.07;;
62861;SDS011;48953;53.110;5.592;2023-03-12T16:26:55;18.58;;;4.18;;
62861;SDS011;48953;53.110;5.592;2023-03-12T16:29:25;18.65;;;4.60;;
62861;SDS011;48953;53.110;5.592;2023-03-12T16:31:55;24.13;;;4.68;;
62861;SDS011;48953;53.110;5.592;2023-03-12T16:34:21;30.58;;;4.90;;
62861;SDS011;48953;53.110;5.592;2023-03-12T16:36:47;24.27;;;5.22;;
62861;SDS011;48953;53.110;5.592;2023-03-12T16:39:13;29.75;;;5.80;;
62861;SDS011;48953;53.110;5.592;2023-03-12T16:41:39;27.30;;;6.00;;
62861;SDS011;48953;53.110;5.592;2023-03-12T16:44:06;28.25;;;5.22;;
62861;SDS011;48953;53.110;5.592;2023-03-12T16:46:32;26.58;;;4.80;;
62861;SDS011;48953;53.110;5.592;2023-03-12T16:48:59;25.17;;;4.60;;
62861;SDS011;48953;53.110;5.592;2023-03-12T16:51:25;23.90;;;4.22;;
62861;SDS011;48953;53.110;5.592;2023-03-12T16:53:56;25.15;;;5.28;;
62861;SDS011;48953;53.110;5.592;2023-03-12T16:56:25;29.30;;;4.35;;